Terminal Aerodrome Forecast
Issued by NWS

Home | Current Version | Previous Version | Text Only | Print | Product List | Glossary On
Versions: 1 2 3 4 5 6 7 8 9 10 11 12 13 14 15 16
373
FTUS45 KRIW 171829 AAA
TAFCOD
TAF AMD
KCOD 171829Z 1718/1818 33012KT P6SM VCSH SCT015 OVC050
      TEMPO 1719/1721 2SM -SN BR OVC015
     FM172100 35015G25KT P6SM VCSH SCT015 OVC035
     FM180000 28012G18KT P6SM SCT060
     FM181000 26015G25KT P6SM FEW080
      AMD LTD TO CLD VIS AND WIND=

USA.gov is the U.S. government's official web portal to all federal, state and local government web resources and services.